Skip Navigation LinksHome page > Weather > Current weather Skip Navigation Links

Current Weather

Sarh, Chad

For information only: do not use for flight planning or navigation.
Latest weather
Observation time Monday, May 30, 2016 4:00 PM WAT
Local time Monday, May 30, 2016 7:19 PM WAT
Flight conditions Visual Meteorological Conditions
Winds
Wind direction Southeast (140°)
Wind speed 5 mph
Visibility 6.2 mi.
Sky condition
Ceiling unlimited
Cloud layer scattered clouds 4,000 ft.
Cloud layer few clouds with cumulonimbus 5,000 ft.
Temperature 93°F
Dewpoint 72°F
Altimeter 29.85 in.Hg
Derived measurements
Relative humidity 50%
Heat index 101°F
Density altitude 2955 ft.
METAR FTTA 301500Z 14004KT 9999 SCT040 FEW050CB 34/22 Q1011

Settings

Location code

InnerDrive.Weather 4.0.5722.1 Release CLR 4.0.30319.34209
Copyright ©2015 Inner Drive Technology. All rights reserved. Portions Copyright ©1986-2015 David Braverman.

Find weather

Site navigation


Skip Navigation Links

Place info

Page info

PayPal - The safer, easier way to pay online!

Return home.

Copyright ©2016 Inner Drive Technology. Purveyors of fine, hand-crafted computer software. Page printed 2016-05-30T18:19:16 UTC.